Latest Weather Observations for Nerriga

IDN60801

Issued at 7:34 am EDT Wednesday 28 January 2015 (issued every 30 minutes, with the page automatically refreshed every 10 minutes)

About weather observations | Map of weather stations | Latest weather observations for NSW | Other Formats
Station Details ID: 069128 Name: NERRIGA AWS Lat: -35.11 Lon: 150.08 Height: 622.0 m
Data from the previous 72 hours. | See also: Recent months at Nerriga
Date/Time
EDT
Temp
°C
App
Temp
°C
Dew
Point
Rel
Hum
%
Delta-T
°C
Wind Press
QNH
hPa
Press
MSL
hPa
Rain
since 9 am
mm
Dir
 
Spd
km/h
Gust
km/h
Spd
kts
Gust
kts
28/07:30am 13.8 11.0 11.5 86 1.3 S 17 26 9 14 1015.4 1012.7 0.4
28/07:00am 13.0 10.3 11.7 92 0.7 SSE 17 24 9 13 1015.1 1012.5 0.4
28/06:30am 12.8 11.4 12.2 96 0.3 SE 11 15 6 8 1014.9 1012.3 0.4
28/06:00am 12.7 11.7 12.2 97 0.3 SSE 9 17 5 9 1014.7 1012.1 0.4
28/05:30am 12.6 11.2 12.3 98 0.2 SSE 11 20 6 11 1014.6 1011.9 0.4
28/05:00am 12.6 10.9 12.3 98 0.2 SSE 13 19 7 10 1014.5 1011.8 0.4
28/04:30am 12.4 10.2 12.1 98 0.2 SSE 15 22 8 12 1014.4 1011.7 0.4
28/04:00am 12.4 10.2 12.1 98 0.2 S 15 22 8 12 1014.4 1011.7 0.4
28/03:30am 12.7 11.0 12.4 98 0.2 SSE 13 20 7 11 1014.8 1012.2 0.4
28/03:00am 12.7 10.6 12.4 98 0.2 SE 15 24 8 13 1014.8 1012.2 0.4
28/02:30am 13.0 11.0 12.7 98 0.2 SSE 15 24 8 13 1015.0 1012.4 0.4
28/02:00am 13.1 11.5 12.8 98 0.2 SE 13 19 7 10 1015.1 1012.5 0.4
28/01:30am 13.0 11.0 12.7 98 0.2 SE 15 22 8 12 1015.3 1012.6 0.4
28/01:00am 13.0 11.8 12.7 98 0.2 SSE 11 17 6 9 1015.5 1012.8 0.4
28/12:30am 12.8 10.4 12.5 98 0.2 SE 17 28 9 15 1015.7 1013.0 0.4
28/12:00am 12.9 10.5 12.6 98 0.2 SE 17 24 9 13 1015.9 1013.2 0.4
 
Date/Time
EDT
Temp
°C
App
Temp
°C
Dew
Point
Rel
Hum
%
Delta-T
°C
Wind Press
QNH
hPa
Press
MSL
hPa
Rain
since 9 am
mm
Dir
 
Spd
km/h
Gust
km/h
Spd
kts
Gust
kts
27/11:30pm 13.2 10.9 12.9 98 0.2 SE 17 24 9 13 1016.1 1013.4 0.4
27/11:00pm 13.2 10.3 12.9 98 0.2 SSE 20 33 11 18 1016.0 1013.3 0.4
27/10:30pm 13.1 11.5 12.8 98 0.2 SE 13 17 7 9 1016.0 1013.3 0.4
27/10:00pm 13.2 10.9 12.9 98 0.2 SSE 17 24 9 13 1016.0 1013.3 0.4
27/09:30pm 13.2 11.3 12.9 98 0.2 SE 15 20 8 11 1015.7 1013.0 0.4
27/09:00pm 13.4 11.9 13.1 98 0.2 SE 13 17 7 9 1015.8 1013.1 0.4
27/08:30pm 13.6 12.6 13.3 98 0.2 SSE 11 19 6 10 1015.6 1012.9 0.2
27/08:00pm 13.8 12.1 13.5 98 0.2 SE 15 24 8 13 1015.3 1012.6 0.2
27/07:30pm 14.0 13.5 13.7 98 0.2 SE 9 13 5 7 1015.1 1012.5 0.2
27/07:00pm 14.2 13.0 13.9 98 0.2 SE 13 19 7 10 1014.8 1012.2 0.2
27/06:30pm 14.0 12.7 13.7 98 0.2 SE 13 19 7 10 1014.5 1011.8 0.2
27/06:00pm 14.4 12.3 13.6 95 0.5 SE 17 24 9 13 1014.5 1011.8 0.2
27/05:30pm 14.5 12.2 12.9 90 0.9 SSE 17 22 9 12 1014.6 1011.9 0.2
27/05:00pm 15.2 12.2 12.5 84 1.5 SE 20 32 11 17 1014.4 1011.7 0.2
27/04:30pm 15.2 12.3 12.2 82 1.7 SE 19 28 10 15 1014.6 1011.9 0.2
27/04:00pm 15.3 13.0 13.0 86 1.3 SE 17 28 9 15 1014.9 1012.3 0.2
27/03:30pm 15.8 13.0 13.3 85 1.4 SE 20 28 11 15 1014.9 1012.3 0.2
27/03:00pm 15.4 12.6 13.1 86 1.3 ESE 20 32 11 17 1015.3 1012.6 0.2
27/02:30pm 15.2 12.6 13.7 91 0.9 ESE 20 33 11 18 1015.3 1012.6 0.2
27/02:00pm 15.6 14.1 15.3 98 0.2 ESE 17 28 9 15 1015.3 1012.6 0.2
27/01:30pm 14.2 13.0 13.9 98 0.2 SE 13 19 7 10 1015.8 1013.1 0.0
27/01:00pm 14.5 13.0 14.2 98 0.2 ESE 15 24 8 13 1016.0 1013.3 0.0
27/12:30pm 14.9 12.3 13.3 90 0.9 SE 19 26 10 14 1016.0 1013.3 0.0
27/12:00pm 15.1 13.4 13.6 91 0.9 SE 15 20 8 11 1016.0 1013.3 0.0
27/11:30am 14.6 13.0 13.8 95 0.5 SE 15 26 8 14 1016.2 1013.6 0.0
27/11:00am 14.5 12.2 14.2 98 0.2 SE 19 28 10 15 1016.2 1013.6 0.0
27/10:30am 14.1 12.8 13.8 98 0.2 SSE 13 17 7 9 1016.4 1013.8 0.0
27/10:00am 14.7 13.2 13.1 90 0.9 SE 13 19 7 10 1016.2 1013.6 0.0
27/09:30am 14.6 11.8 13.3 92 0.7 SE 20 32 11 17 1015.9 1013.2 0.0
27/09:00am 13.7 10.9 13.2 97 0.3 SE 20 28 11 15 1016.1 1013.4 0.0
27/08:30am 13.7 11.2 13.4 98 0.2 SE 19 26 10 14 1015.9 1013.2 0.0
27/08:00am 13.2 11.6 12.9 98 0.2 ESE 13 20 7 11 1016.0 1013.3 0.0
27/07:30am 13.0 11.8 12.7 98 0.2 SE 11 19 6 10 1015.6 1012.9 0.0
27/07:00am 12.8 12.3 12.5 98 0.2 SE 7 15 4 8 1015.3 1012.6 0.0
27/06:30am 12.6 11.6 12.3 98 0.2 SE 9 15 5 8 1014.9 1012.3 0.0
27/06:00am 12.5 11.1 12.2 98 0.2 SE 11 20 6 11 1015.0 1012.4 0.0
27/05:30am 12.5 11.5 12.3 99 0.1 SE 9 13 5 7 1014.9 1012.3 0.0
27/05:00am 12.6 12.2 12.4 99 0.1 SE 6 9 3 5 1015.0 1012.4 0.0
27/04:30am 12.6 11.6 12.4 99 0.1 ESE 9 15 5 8 1014.9 1012.3 0.0
27/04:00am 12.6 11.2 12.3 98 0.2 SE 11 15 6 8 1015.1 1012.5 0.0
27/03:30am 12.6 11.2 12.3 98 0.2 SE 11 19 6 10 1015.4 1012.7 0.0
27/03:00am 12.6 12.0 12.3 98 0.2 SE 7 11 4 6 1015.5 1012.8 0.0
27/02:30am 12.6 11.6 12.4 99 0.1 SE 9 17 5 9 1015.8 1013.1 0.0
27/02:00am 12.6 12.0 12.3 98 0.2 SE 7 13 4 7 1015.8 1013.1 0.0
27/01:30am 12.6 11.6 12.3 98 0.2 SE 9 15 5 8 1016.1 1013.4 0.0
27/01:00am 12.5 10.7 12.2 98 0.2 SE 13 20 7 11 1016.4 1013.8 0.0
27/12:30am 12.6 10.9 12.4 99 0.1 SE 13 20 7 11 1016.4 1013.8 0.0
27/12:00am 12.5 10.8 12.3 99 0.1 SE 13 20 7 11 1016.8 1014.2 0.0
 
Date/Time
EDT
Temp
°C
App
Temp
°C
Dew
Point
Rel
Hum
%
Delta-T
°C
Wind Press
QNH
hPa
Press
MSL
hPa
Rain
since 9 am
mm
Dir
 
Spd
km/h
Gust
km/h
Spd
kts
Gust
kts
26/11:30pm 12.5 10.8 12.3 99 0.1 SE 13 20 7 11 1017.0 1014.3 0.0
26/11:00pm 12.5 11.1 12.2 98 0.2 SE 11 19 6 10 1017.1 1014.4 0.0
26/10:30pm 12.4 11.0 12.1 98 0.2 SE 11 17 6 9 1017.6 1015.0 0.0
26/10:00pm 12.4 10.6 12.1 98 0.2 SE 13 20 7 11 1017.4 1014.7 0.0
26/09:30pm 12.4 11.3 12.1 98 0.2 SE 9 15 5 8 1017.2 1014.5 0.0
26/09:00pm 12.4 11.0 12.1 98 0.2 SE 11 19 6 10 1016.8 1014.2 0.0
26/08:30pm 12.2 10.3 11.9 98 0.2 SE 13 19 7 10 1016.8 1014.2 0.0
26/08:00pm 12.3 11.6 12.0 98 0.2 ESE 7 9 4 5 1016.8 1014.2 0.0
26/07:30pm 12.3 11.8 12.0 98 0.2 SE 6 9 3 5 1016.5 1013.9 0.0
26/07:00pm 12.3 10.5 12.0 98 0.2 SE 13 19 7 10 1016.2 1013.6 0.0
26/06:30pm 12.4 10.0 11.5 94 0.5 SSE 15 20 8 11 1016.1 1013.4 0.0
26/06:00pm 12.7 11.1 11.6 93 0.6 SE 11 17 6 9 1015.8 1013.1 0.0
26/05:30pm 12.6 10.6 11.5 93 0.6 SE 13 20 7 11 1015.8 1013.1 0.0
26/05:00pm 12.8 10.3 11.0 89 1.0 SE 15 22 8 12 1015.8 1013.1 0.0
26/04:30pm 13.1 10.5 10.8 86 1.2 ESE 15 22 8 12 1015.8 1013.1 0.0
26/04:00pm 13.3 10.6 10.5 83 1.5 ESE 15 20 8 11 1015.9 1013.2 0.0
26/03:30pm 13.4 10.3 10.4 82 1.6 ESE 17 22 9 12 1015.8 1013.1 0.0
26/03:00pm 13.4 10.4 10.6 83 1.5 ESE 17 22 9 12 1015.9 1013.2 0.0
26/02:30pm 13.6 10.7 11.0 84 1.4 SE 17 22 9 12 1015.8 1013.1 0.0
26/02:00pm 13.7 10.6 10.3 80 1.8 SE 17 24 9 13 1015.9 1013.2 0.0
26/01:30pm 13.7 10.3 10.7 82 1.6 SE 19 24 10 13 1016.0 1013.3 0.0
26/01:00pm 13.8 10.8 10.8 82 1.6 SE 17 22 9 12 1016.1 1013.4 0.0
26/12:30pm 14.6 11.7 11.0 79 2.0 SE 17 26 9 14 1016.0 1013.3 0.0
26/12:00pm 14.7 12.2 10.9 78 2.1 SE 15 22 8 12 1016.0 1013.3 0.0
26/11:30am 15.9 13.4 11.1 73 2.7 ESE 15 19 8 10 1015.8 1013.1 0.0
26/11:00am 15.5 12.6 10.9 74 2.5 SE 17 24 9 13 1015.9 1013.2 0.0
26/10:30am 14.9 12.8 11.1 78 2.1 SE 13 19 7 10 1015.8 1013.1 0.0
26/10:00am 14.3 12.0 10.5 78 2.1 SSE 13 19 7 10 1015.9 1013.2 0.0
26/09:30am 14.6 12.0 10.8 78 2.1 SE 15 24 8 13 1015.8 1013.1 0.0
26/09:00am 14.1 11.2 11.1 82 1.6 SE 17 24 9 13 1015.7 1013.0 0.2
26/08:30am 13.5 11.9 11.6 88 1.0 SE 11 20 6 11 1015.6 1012.9 0.2
26/08:00am 12.9 10.6 11.6 92 0.7 SE 15 24 8 13 1015.1 1012.5 0.2
26/07:30am 13.1 11.0 12.3 95 0.4 SE 15 24 8 13 1014.8 1012.2 0.2
26/07:00am 12.9 10.8 12.3 96 0.3 ESE 15 22 8 12 1014.5 1011.8 0.2
26/06:30am 12.7 11.7 12.4 98 0.2 SE 9 19 5 10 1014.3 1011.6 0.2
26/06:00am 12.7 11.3 12.2 97 0.3 ESE 11 17 6 9 1014.0 1011.3 0.2
26/05:30am 13.0 11.3 12.4 96 0.3 SE 13 24 7 13 1013.7 1011.0 0.2
26/05:00am 13.1 12.8 12.6 97 0.3 SE 6 9 3 5 1013.2 1010.5 0.2
26/04:30am 13.1 12.2 12.6 97 0.3 SE 9 15 5 8 1012.9 1010.2 0.2
26/04:00am 13.1 11.4 12.6 97 0.3 SE 13 20 7 11 1013.0 1010.3 0.2
26/03:30am 13.3 11.7 12.7 96 0.3 SE 13 22 7 12 1013.0 1010.3 0.2
26/03:00am 13.3 13.1 13.0 98 0.2 SE 6 11 3 6 1012.9 1010.2 0.2
26/02:30am 13.4 11.8 12.9 97 0.3 SE 13 24 7 13 1012.8 1010.1 0.2
26/02:00am 13.5 12.0 13.0 97 0.3 ESE 13 22 7 12 1012.8 1010.1 0.2
26/01:30am 13.5 10.3 13.2 98 0.2 ESE 22 28 12 15 1012.6 1009.9 0.2
26/01:00am 13.8 10.7 13.5 98 0.2 SE 22 32 12 17 1012.6 1009.9 0.2
26/12:30am 14.1 11.5 13.8 98 0.2 SE 20 30 11 16 1012.7 1010.0 0.2
26/12:00am 14.1 12.1 13.8 98 0.2 SE 17 24 9 13 1012.5 1009.8 0.2
 
Date/Time
EDT
Temp
°C
App
Temp
°C
Dew
Point
Rel
Hum
%
Delta-T
°C
Wind Press
QNH
hPa
Press
MSL
hPa
Rain
since 9 am
mm
Dir
 
Spd
km/h
Gust
km/h
Spd
kts
Gust
kts
25/11:30pm 14.0 11.4 13.7 98 0.2 SE 20 26 11 14 1012.4 1009.7 0.2
25/11:00pm 14.2 11.6 13.9 98 0.2 SE 20 28 11 15 1012.5 1009.8 0.2
25/10:30pm 14.3 11.8 14.0 98 0.2 SE 20 30 11 16 1012.3 1009.6 0.2
25/10:00pm 14.7 11.9 14.4 98 0.2 SE 22 30 12 16 1011.9 1009.1 0.2
25/09:30pm 14.8 12.6 14.5 98 0.2 SE 19 28 10 15 1011.5 1008.8 0.2
25/09:00pm 15.0 12.9 14.7 98 0.2 SE 19 28 10 15 1011.1 1008.4 0.2
25/08:30pm 15.3 12.7 15.0 98 0.2 ESE 22 32 12 17 1010.5 1007.8 0.2
25/08:00pm 16.0 13.7 15.7 98 0.2 ESE 22 30 12 16 1009.9 1007.2 0.2
25/07:30pm 17.3 14.7 15.8 91 0.9 ESE 24 32 13 17 1008.9 1006.1 0.2
25/07:00pm 18.5 15.4 15.7 84 1.7 ESE 26 37 14 20 1008.2 1005.5 0.2
25/06:30pm 19.6 15.8 15.7 78 2.4 ESE 30 43 16 23 1007.5 1004.7 0.2
25/06:14pm 21.3 19.0 14.7 66 4.0 SSE 20 33 11 18 1007.4 1004.6 0.2
25/06:00pm 26.4 20.6 7.9 31 10.2 W 28 37 15 20 1006.8 1004.0 0.2
25/05:30pm 26.6 19.9 8.1 31 10.2 WNW 33 48 18 26 1006.3 1003.6 0.2
25/05:00pm 27.4 21.3 9.7 33 10.1 W 32 52 17 28 1006.3 1003.6 0.2
25/04:51pm 27.1 20.3 7.5 29 10.8 W 33 52 18 28 1006.1 1003.3 0.2
25/04:30pm 27.4 21.6 7.8 29 10.8 W 28 44 15 24 1006.2 1003.5 0.2
25/04:00pm 27.7 23.1 10.9 35 9.8 WNW 26 41 14 22 1006.0 1003.2 0.2
25/03:30pm 27.6 21.5 9.9 33 10.2 W 32 44 17 24 1005.8 1003.0 0.2
25/03:00pm 27.3 19.9 8.2 30 10.7 WNW 37 52 20 28 1005.6 1002.8 0.2
25/02:41pm 27.3 20.6 8.2 30 10.6 WNW 33 54 18 29 1005.6 1002.8 0.2
25/02:30pm 27.4 21.8 13.4 42 8.5 WNW 35 48 19 26 1005.4 1002.6 0.2
25/02:10pm 26.7 22.7 14.1 46 7.7 WNW 28 46 15 25 1005.4 1002.6 0.2
25/02:00pm 25.7 20.9 13.9 48 7.2 WNW 32 44 17 24 1005.5 1002.7 0.2
25/01:46pm 26.4 21.5 15.4 50 6.9 W 35 54 19 29 1005.5 1002.7 0.2
25/01:30pm 26.2 22.1 15.9 53 6.5 WNW 32 48 17 26 1005.3 1002.5 0.2
25/01:00pm 25.6 22.9 17.5 61 5.2 WNW 28 43 15 23 1005.6 1002.8 0.2
25/12:30pm 25.1 23.4 19.0 69 4.0 WNW 26 33 14 18 1005.5 1002.7 0.2
25/12:00pm 24.7 23.4 19.1 71 3.7 WNW 24 35 13 19 1005.7 1002.9 0.2
25/11:30am 24.0 23.0 18.9 73 3.3 WNW 22 33 12 18 1005.8 1003.0 0.2
25/11:00am 22.9 20.9 18.4 76 2.9 NW 26 35 14 19 1005.8 1003.0 0.2
25/10:30am 22.8 20.6 18.6 77 2.7 NW 28 37 15 20 1005.6 1002.8 0.2
25/10:00am 22.3 19.5 18.3 78 2.6 WNW 30 41 16 22 1005.6 1002.8 0.0
25/09:30am 22.1 19.3 18.3 79 2.4 W 30 43 16 23 1005.7 1002.9 0.0
25/09:00am 21.3 19.0 18.5 84 1.8 WNW 28 43 15 23 1005.9 1003.1 5.2
25/08:30am 19.8 17.2 17.9 89 1.2 WNW 28 35 15 19 1005.9 1003.1 5.2
25/08:00am 19.4 16.9 18.1 92 0.8 WNW 28 37 15 20 1005.5 1002.7 5.2
25/07:55am 19.2 16.6 17.9 92 0.8 WNW 28 43 15 23 1005.5 1002.7 5.2

Other Formats:

Comma delimited format used in spreadsheet applications
http://www.bom.gov.au/fwo/IDN60801/IDN60801.94943.axf

JavaScript Object Notation format (JSON) in row-major order
http://www.bom.gov.au/fwo/IDN60801/IDN60801.94943.json